createdAt,value
2018-08-27T00:00:40.131Z,91.50
2018-08-27T00:03:09.170Z,92.50
2018-08-27T00:05:38.130Z,93.20
2018-08-27T00:08:07.247Z,94.30
2018-08-27T00:10:36.083Z,94.30
2018-08-27T00:13:05.183Z,94.90
2018-08-27T00:15:34.038Z,95.50
2018-08-27T00:18:02.883Z,96.10
2018-08-27T00:20:32.338Z,96.30
2018-08-27T00:23:01.213Z,96.90
2018-08-27T00:25:30.074Z,97.70
2018-08-27T00:27:58.926Z,97.70
2018-08-27T00:30:27.831Z,99.50
2018-08-27T00:32:56.663Z,98.60
2018-08-27T00:35:25.696Z,99.00
2018-08-27T00:37:54.704Z,99.90
2018-08-27T00:40:23.672Z,99.90
2018-08-27T00:42:53.307Z,99.90
2018-08-27T00:45:22.068Z,99.90
2018-08-27T00:47:50.979Z,99.90
2018-08-27T00:50:20.029Z,99.90
2018-08-27T00:52:48.889Z,99.90
2018-08-27T00:55:17.805Z,99.90
2018-08-27T00:57:46.650Z,99.90
2018-08-27T01:00:15.532Z,99.90
2018-08-27T01:02:44.486Z,99.90
2018-08-27T01:05:13.394Z,99.90
2018-08-27T01:07:42.249Z,99.90
2018-08-27T01:10:11.257Z,99.90
2018-08-27T01:12:40.140Z,99.90
2018-08-27T01:15:09.621Z,99.90
2018-08-27T01:17:38.570Z,99.90
2018-08-27T01:20:07.688Z,99.90
2018-08-27T01:22:37.358Z,99.90
2018-08-27T01:25:06.459Z,99.90
2018-08-27T01:27:35.229Z,99.90
2018-08-27T01:30:04.176Z,99.90
2018-08-27T01:32:33.320Z,99.90
2018-08-27T01:35:02.281Z,99.90
2018-08-27T01:37:31.142Z,99.90
2018-08-27T01:40:00.131Z,99.90
2018-08-27T01:42:29.912Z,99.90
2018-08-27T01:44:58.810Z,99.90
2018-08-27T01:47:27.789Z,99.90
2018-08-27T01:49:57.400Z,99.90
2018-08-27T01:52:26.341Z,99.90
2018-08-27T01:54:55.118Z,99.90
2018-08-27T01:57:24.046Z,99.90
2018-08-27T01:59:53.012Z,99.90
2018-08-27T02:02:21.733Z,99.90
2018-08-27T02:04:50.678Z,99.90
2018-08-27T02:07:19.446Z,99.90
2018-08-27T02:09:48.323Z,99.90
2018-08-27T02:12:17.115Z,99.90
2018-08-27T02:14:46.618Z,99.90
2018-08-27T02:17:15.485Z,99.90
2018-08-27T02:19:45.481Z,99.90
2018-08-27T02:22:14.383Z,99.90
2018-08-27T02:24:43.296Z,99.90
2018-08-27T02:27:12.166Z,99.90
2018-08-27T02:29:41.287Z,99.90
2018-08-27T02:32:11.126Z,99.90
2018-08-27T02:34:40.084Z,99.90
2018-08-27T02:37:09.076Z,99.90
2018-08-27T02:39:37.938Z,99.90
2018-08-27T02:42:06.841Z,99.90
2018-08-27T02:44:36.109Z,99.90
2018-08-27T02:47:05.178Z,99.90
2018-08-27T02:49:34.042Z,99.90
2018-08-27T02:52:02.944Z,99.90
2018-08-27T02:54:31.984Z,99.90
2018-08-27T02:57:01.185Z,99.90
2018-08-27T02:59:30.238Z,99.90
2018-08-27T03:01:59.174Z,99.90
2018-08-27T03:04:28.114Z,99.90
2018-08-27T03:06:57.727Z,99.90
2018-08-27T03:09:26.611Z,99.90
2018-08-27T03:11:55.450Z,99.90
2018-08-27T03:14:24.322Z,99.90
2018-08-27T03:16:53.183Z,99.90
2018-08-27T03:19:22.060Z,99.90
2018-08-27T03:21:51.008Z,99.90
2018-08-27T03:24:20.085Z,99.90
2018-08-27T03:26:49.056Z,99.90
2018-08-27T03:29:17.933Z,99.90
2018-08-27T03:31:47.553Z,99.90
2018-08-27T03:34:16.513Z,99.90
2018-08-27T03:36:45.461Z,99.90
2018-08-27T03:39:15.178Z,99.90
2018-08-27T03:41:43.961Z,99.90
2018-08-27T03:44:12.769Z,99.90
2018-08-27T03:46:41.630Z,99.90
2018-08-27T03:49:10.508Z,99.90
2018-08-27T03:51:39.351Z,99.90
2018-08-27T03:54:08.407Z,99.90
2018-08-27T03:56:37.405Z,99.90
2018-08-27T03:59:06.409Z,99.90
2018-08-27T04:01:35.923Z,99.90
2018-08-27T04:04:04.749Z,99.90
2018-08-27T04:06:33.774Z,99.90
2018-08-27T04:09:02.821Z,99.90
2018-08-27T04:11:31.845Z,99.90
2018-08-27T04:14:00.818Z,99.90
2018-08-27T04:16:29.754Z,99.90
2018-08-27T04:18:58.894Z,99.90
2018-08-27T04:21:28.074Z,99.90
2018-08-27T04:23:57.099Z,99.90
2018-08-27T04:26:26.631Z,99.90
2018-08-27T04:28:55.605Z,99.90
2018-08-27T04:31:24.374Z,99.90
2018-08-27T04:33:53.366Z,99.90
2018-08-27T04:36:22.205Z,99.90
2018-08-27T04:38:50.987Z,99.90
2018-08-27T04:41:19.917Z,99.90
2018-08-27T04:43:48.826Z,99.90
2018-08-27T04:46:17.875Z,99.90
2018-08-27T04:48:46.750Z,99.90
2018-08-27T04:51:15.630Z,99.90
2018-08-27T04:53:44.622Z,99.90
2018-08-27T04:56:13.491Z,99.90
2018-08-27T04:58:44.457Z,99.90
2018-08-27T05:01:13.406Z,99.90
2018-08-27T05:03:42.222Z,99.90
2018-08-27T05:06:11.919Z,99.90
2018-08-27T05:08:41.250Z,99.90
2018-08-27T05:11:10.158Z,99.90
2018-08-27T05:13:39.118Z,99.90
2018-08-27T05:16:07.871Z,99.90
2018-08-27T05:18:36.722Z,99.90
2018-08-27T05:21:05.528Z,99.90
2018-08-27T05:23:34.454Z,99.90
2018-08-27T05:26:03.287Z,99.90
2018-08-27T05:28:33.079Z,99.90
2018-08-27T05:31:01.939Z,99.90
2018-08-27T05:33:30.849Z,99.90
2018-08-27T05:35:59.690Z,99.90
2018-08-27T05:38:28.540Z,99.90
2018-08-27T05:40:57.340Z,99.90
2018-08-27T05:43:26.202Z,99.90
2018-08-27T05:45:55.126Z,99.90
2018-08-27T05:48:23.960Z,99.90
2018-08-27T05:50:53.942Z,99.90
2018-08-27T05:53:22.654Z,99.90
2018-08-27T05:55:51.736Z,99.90
2018-08-27T05:58:20.604Z,99.90
2018-08-27T06:00:49.435Z,99.90
2018-08-27T06:03:18.446Z,99.90
2018-08-27T06:05:48.043Z,99.90
2018-08-27T06:08:17.818Z,99.90
2018-08-27T06:10:47.102Z,99.90
2018-08-27T06:13:16.125Z,99.90
2018-08-27T06:15:45.011Z,99.90
2018-08-27T06:18:13.764Z,99.90
2018-08-27T06:20:42.501Z,99.90
2018-08-27T06:23:11.237Z,99.90
2018-08-27T06:25:40.500Z,99.90
2018-08-27T06:28:09.398Z,99.90
2018-08-27T06:30:38.370Z,99.90
2018-08-27T06:33:07.267Z,99.90
2018-08-27T06:35:36.134Z,99.90
2018-08-27T06:38:05.433Z,99.90
2018-08-27T06:40:34.188Z,99.90
2018-08-27T06:43:03.561Z,99.90
2018-08-27T06:45:32.991Z,99.90
2018-08-27T06:48:01.779Z,99.90
2018-08-27T06:50:30.679Z,99.90
2018-08-27T06:52:59.803Z,99.90
2018-08-27T06:55:29.304Z,99.90
2018-08-27T06:57:58.062Z,99.90
2018-08-27T07:00:27.038Z,99.90
2018-08-27T07:02:56.019Z,99.90
2018-08-27T07:05:24.857Z,99.90
2018-08-27T07:07:53.798Z,99.90
2018-08-27T07:10:22.753Z,99.90
2018-08-27T07:12:51.747Z,99.90
2018-08-27T07:15:20.862Z,99.90
2018-08-27T07:17:49.776Z,99.90
2018-08-27T07:20:18.683Z,99.90
2018-08-27T07:22:47.512Z,99.90
2018-08-27T07:25:16.345Z,99.90
2018-08-27T07:27:45.133Z,99.90
2018-08-27T07:30:13.892Z,99.90
2018-08-27T07:32:42.769Z,99.90
2018-08-27T07:35:12.295Z,99.90
2018-08-27T07:37:41.092Z,99.90
2018-08-27T07:40:09.921Z,99.90
2018-08-27T07:42:39.028Z,98.90
2018-08-27T07:45:09.064Z,95.60
2018-08-27T07:47:38.072Z,92.00
2018-08-27T07:50:08.595Z,92.90
2018-08-27T07:52:37.506Z,90.30
2018-08-27T07:55:07.110Z,83.70
2018-08-27T07:57:36.207Z,77.70
2018-08-27T08:00:05.798Z,75.50
2018-08-27T08:02:35.622Z,70.40
2018-08-27T08:05:04.583Z,65.60
2018-08-27T08:07:34.417Z,60.70
2018-08-27T08:10:03.347Z,59.70
2018-08-27T08:12:32.369Z,59.40
2018-08-27T08:15:01.344Z,61.50
2018-08-27T08:17:30.548Z,63.70
2018-08-27T08:19:59.464Z,66.50
2018-08-27T08:22:28.516Z,68.60
2018-08-27T08:24:57.409Z,70.50
2018-08-27T08:27:26.341Z,72.20
2018-08-27T08:29:55.187Z,72.20
2018-08-27T08:32:24.127Z,73.70
2018-08-27T08:34:53.088Z,75.60
2018-08-27T08:37:22.122Z,76.10
2018-08-27T08:39:51.024Z,77.10
2018-08-27T08:42:19.906Z,76.80
2018-08-27T08:44:49.680Z,76.40
2018-08-27T08:47:19.241Z,78.90
2018-08-27T08:49:48.907Z,77.70
2018-08-27T08:52:17.644Z,77.70
2018-08-27T08:54:46.506Z,79.20
2018-08-27T08:57:15.449Z,79.80
2018-08-27T08:59:44.139Z,78.00
2018-08-27T09:02:13.015Z,80.20
2018-08-27T09:04:42.117Z,80.00
2018-08-27T09:07:11.389Z,81.70
2018-08-27T09:09:41.279Z,80.90
2018-08-27T09:12:10.175Z,81.80
2018-08-27T09:14:39.405Z,77.40
2018-08-27T09:17:08.246Z,75.70
2018-08-27T09:19:37.195Z,75.50
2018-08-27T09:22:06.209Z,74.30
2018-08-27T09:24:35.049Z,74.90
2018-08-27T09:27:03.843Z,75.40
2018-08-27T09:29:32.804Z,73.90
2018-08-27T09:32:01.717Z,70.70
2018-08-27T09:34:30.728Z,67.10
2018-08-27T09:36:59.665Z,68.70
2018-08-27T09:39:28.560Z,71.20
2018-08-27T09:41:57.485Z,74.00
2018-08-27T09:44:26.288Z,75.80
2018-08-27T09:46:55.551Z,76.90
2018-08-27T09:49:24.322Z,77.60
2018-08-27T09:51:53.901Z,76.80
2018-08-27T09:54:22.799Z,77.10
2018-08-27T09:56:51.636Z,77.90
2018-08-27T09:59:20.520Z,75.70
2018-08-27T10:01:54.727Z,75.20
2018-08-27T10:04:24.247Z,69.10
2018-08-27T10:06:53.123Z,68.00
2018-08-27T10:09:22.173Z,69.30
2018-08-27T10:11:51.003Z,67.90
2018-08-27T10:14:19.961Z,69.10
2018-08-27T10:16:49.338Z,71.20
2018-08-27T10:19:18.189Z,71.50
2018-08-27T10:21:47.071Z,74.20
2018-08-27T10:24:16.023Z,75.40
2018-08-27T10:26:44.887Z,76.00
2018-08-27T10:29:14.206Z,78.40
2018-08-27T10:31:43.788Z,75.70
2018-08-27T10:34:13.733Z,75.20
2018-08-27T10:36:42.707Z,75.70
2018-08-27T10:39:12.078Z,74.80
2018-08-27T10:41:41.020Z,72.10
2018-08-27T10:44:09.940Z,74.70
2018-08-27T10:46:38.971Z,73.10
2018-08-27T10:49:08.177Z,76.10
2018-08-27T10:51:37.183Z,75.80
2018-08-27T10:54:06.689Z,76.90
2018-08-27T10:56:36.232Z,76.90
2018-08-27T10:59:05.405Z,77.00
2018-08-27T11:01:34.250Z,75.80
2018-08-27T11:04:03.703Z,75.00
2018-08-27T11:06:32.616Z,75.80
2018-08-27T11:09:01.681Z,73.80
2018-08-27T11:11:30.619Z,74.90
2018-08-27T11:13:59.675Z,73.10
2018-08-27T11:16:28.588Z,72.70
2018-08-27T11:18:58.111Z,72.40
2018-08-27T11:21:27.055Z,73.00
2018-08-27T11:23:56.113Z,73.70
2018-08-27T11:26:24.976Z,73.90
2018-08-27T11:28:55.536Z,74.60
2018-08-27T11:31:24.350Z,75.10
2018-08-27T11:33:53.392Z,76.30
2018-08-27T11:36:22.374Z,76.90
2018-08-27T11:38:51.225Z,74.90
2018-08-27T11:41:20.229Z,75.50
2018-08-27T11:43:49.119Z,75.00
2018-08-27T11:46:17.947Z,75.00
2018-08-27T11:48:46.850Z,76.30
2018-08-27T11:51:15.786Z,75.20
2018-08-27T11:53:44.586Z,76.50
2018-08-27T11:56:13.496Z,74.60
2018-08-27T11:58:43.178Z,74.60
2018-08-27T12:01:12.697Z,74.40
2018-08-27T12:03:41.712Z,72.30
2018-08-27T12:06:10.686Z,72.60
2018-08-27T12:08:39.752Z,72.30
2018-08-27T12:11:08.825Z,72.70
2018-08-27T12:13:38.420Z,72.40
2018-08-27T12:16:08.272Z,72.30
2018-08-27T12:18:37.771Z,73.80
2018-08-27T12:21:06.724Z,73.60
2018-08-27T12:23:35.608Z,74.20
2018-08-27T12:26:04.398Z,75.30
2018-08-27T12:28:34.113Z,75.60
2018-08-27T12:31:03.091Z,74.20
2018-08-27T12:33:32.017Z,75.00
2018-08-27T12:36:01.479Z,74.70
2018-08-27T12:38:30.419Z,74.90
2018-08-27T12:40:59.404Z,71.00
2018-08-27T12:43:28.259Z,73.20
2018-08-27T12:45:57.134Z,69.40
2018-08-27T12:48:26.063Z,67.30
2018-08-27T12:50:55.523Z,69.70
2018-08-27T12:53:24.419Z,71.50
2018-08-27T12:55:53.990Z,71.80
2018-08-27T12:58:23.019Z,73.00
2018-08-27T13:00:52.085Z,74.00
2018-08-27T13:03:20.997Z,73.80
2018-08-27T13:05:49.971Z,74.80
2018-08-27T13:08:19.359Z,73.90
2018-08-27T13:10:48.291Z,74.00
2018-08-27T13:13:17.817Z,75.70
2018-08-27T13:15:47.459Z,75.00
2018-08-27T13:18:16.270Z,74.70
2018-08-27T13:20:45.127Z,74.50
2018-08-27T13:23:13.918Z,75.10
2018-08-27T13:25:43.029Z,75.00
2018-08-27T13:28:11.992Z,76.10
2018-08-27T13:30:40.835Z,76.80
2018-08-27T13:33:10.260Z,76.20
2018-08-27T13:35:39.282Z,76.40
2018-08-27T13:38:08.310Z,78.00
2018-08-27T13:40:37.506Z,79.00
2018-08-27T13:43:06.190Z,79.30
2018-08-27T13:45:36.397Z,80.50
2018-08-27T13:48:05.241Z,80.90
2018-08-27T13:50:34.107Z,82.30
2018-08-27T13:53:02.933Z,82.30
2018-08-27T13:55:32.527Z,83.80
2018-08-27T13:58:01.426Z,84.40
2018-08-27T14:00:30.445Z,85.70
2018-08-27T14:02:59.287Z,84.80
2018-08-27T14:05:30.064Z,86.10
2018-08-27T14:07:59.652Z,84.40
2018-08-27T14:10:28.567Z,86.60
2018-08-27T14:12:57.413Z,87.10
2018-08-27T14:15:29.413Z,88.90
2018-08-27T14:17:58.253Z,88.10
2018-08-27T14:20:27.639Z,88.30
2018-08-27T14:22:56.387Z,88.60
2018-08-27T14:25:25.217Z,88.80
2018-08-27T14:27:54.042Z,89.60
2018-08-27T14:30:22.893Z,90.20
2018-08-27T14:32:52.242Z,90.50
2018-08-27T14:35:21.239Z,91.00
2018-08-27T14:37:50.293Z,91.00
2018-08-27T14:40:19.252Z,94.10
2018-08-27T14:42:48.032Z,95.20
2018-08-27T14:45:16.931Z,94.30
2018-08-27T14:47:45.897Z,93.80
2018-08-27T14:50:15.318Z,93.70
2018-08-27T14:52:44.030Z,94.10
2018-08-27T14:55:12.851Z,93.80
2018-08-27T14:57:41.655Z,93.70
2018-08-27T15:00:11.337Z,93.50
2018-08-27T15:02:40.267Z,93.20
2018-08-27T15:05:09.220Z,93.10
2018-08-27T15:07:38.014Z,93.00
2018-08-27T15:10:07.532Z,93.70
2018-08-27T15:12:36.475Z,93.80
2018-08-27T15:15:05.970Z,93.70
2018-08-27T15:17:34.840Z,94.60
2018-08-27T15:20:03.845Z,95.90
2018-08-27T15:22:32.786Z,96.30
2018-08-27T15:25:01.719Z,97.10
2018-08-27T15:27:30.760Z,97.20
2018-08-27T15:30:00.208Z,97.30
2018-08-27T15:32:28.971Z,97.00
2018-08-27T15:34:57.773Z,96.80
2018-08-27T15:37:26.987Z,97.00
2018-08-27T15:39:55.756Z,95.70
2018-08-27T15:42:24.757Z,95.90
2018-08-27T15:44:53.860Z,96.00
2018-08-27T15:47:22.663Z,95.60
2018-08-27T15:49:51.710Z,95.60
2018-08-27T15:52:20.475Z,95.50
2018-08-27T15:54:49.250Z,95.40
2018-08-27T15:57:18.146Z,95.40
2018-08-27T15:59:46.972Z,95.50
2018-08-27T16:02:15.849Z,95.00
2018-08-27T16:04:44.754Z,94.90
2018-08-27T16:07:13.564Z,95.20
2018-08-27T16:09:42.390Z,95.50
2018-08-27T16:12:11.237Z,95.10
2018-08-27T16:14:40.097Z,95.10
2018-08-27T16:17:09.523Z,95.30
2018-08-27T16:19:38.486Z,95.70
2018-08-27T16:22:08.154Z,96.30
2018-08-27T16:24:37.028Z,96.80
2018-08-27T16:30:14.850Z,96.80
2018-08-27T16:32:49.069Z,97.50
2018-08-27T16:35:17.848Z,97.40
2018-08-27T16:37:46.720Z,98.00
2018-08-27T16:40:15.607Z,97.80
2018-08-27T16:42:44.492Z,97.40
2018-08-27T16:45:15.107Z,97.40
2018-08-27T16:47:43.917Z,97.50
2018-08-27T16:50:12.702Z,98.10
2018-08-27T16:52:41.619Z,98.10
2018-08-27T16:55:11.559Z,98.80
2018-08-27T16:57:40.499Z,98.60
2018-08-27T17:00:11.167Z,98.70
2018-08-27T17:02:41.006Z,98.80
2018-08-27T17:05:10.379Z,99.10
2018-08-27T17:07:39.151Z,99.30
2018-08-27T17:10:08.226Z,99.10
2018-08-27T17:12:47.925Z,99.10
2018-08-27T17:15:17.006Z,99.60
2018-08-27T17:18:09.329Z,99.80
2018-08-27T17:20:38.759Z,99.90
2018-08-27T17:23:18.391Z,99.90
2018-08-27T17:25:47.313Z,99.90
2018-08-27T17:28:22.485Z,99.90
2018-08-27T17:30:51.477Z,99.90
2018-08-27T17:33:20.326Z,99.90
2018-08-27T17:35:49.166Z,99.90
2018-08-27T17:38:17.952Z,99.90
2018-08-27T17:40:46.997Z,99.90
2018-08-27T17:43:19.705Z,99.90
2018-08-27T17:45:48.758Z,99.90
2018-08-27T17:48:19.710Z,99.90
2018-08-27T17:50:48.702Z,99.90
2018-08-27T17:53:17.794Z,99.90
2018-08-27T17:55:53.433Z,99.90
2018-08-27T17:58:22.484Z,99.90
2018-08-27T18:00:51.615Z,99.90
2018-08-27T18:03:21.236Z,99.90
2018-08-27T18:05:50.097Z,99.90
2018-08-27T18:08:19.067Z,99.90
2018-08-27T18:10:48.572Z,99.90
2018-08-27T18:13:29.723Z,99.90
2018-08-27T18:15:58.799Z,99.90
2018-08-27T18:18:28.000Z,99.90
2018-08-27T18:21:02.648Z,99.90
2018-08-27T18:23:32.739Z,99.90
2018-08-27T18:26:05.816Z,99.90
2018-08-27T18:28:35.101Z,99.90
2018-08-27T18:31:04.636Z,99.90
2018-08-27T18:33:33.289Z,99.90
2018-08-27T18:36:01.938Z,99.90
2018-08-27T18:38:40.330Z,99.90
2018-08-27T18:41:19.610Z,99.90
2018-08-27T18:43:48.534Z,99.90
2018-08-27T18:46:17.536Z,99.90
2018-08-27T18:48:46.279Z,99.90
2018-08-27T18:51:15.675Z,99.90
2018-08-27T18:53:44.975Z,99.90
2018-08-27T18:56:14.177Z,99.90
2018-08-27T18:58:43.498Z,99.90
2018-08-27T19:01:13.260Z,99.90
2018-08-27T19:03:42.517Z,99.90
2018-08-27T19:06:13.848Z,99.90
2018-08-27T19:08:43.086Z,99.90
2018-08-27T19:11:12.293Z,99.90
2018-08-27T19:13:41.557Z,99.90
2018-08-27T19:16:10.791Z,99.90
2018-08-27T19:18:40.028Z,99.90
2018-08-27T19:21:09.097Z,99.90
2018-08-27T19:23:38.896Z,99.90
2018-08-27T19:26:08.681Z,99.90
2018-08-27T19:28:38.046Z,99.90
2018-08-27T19:31:07.612Z,99.90
2018-08-27T19:33:36.773Z,99.90
2018-08-27T19:36:07.140Z,99.90
2018-08-27T19:38:36.442Z,99.90
2018-08-27T19:41:05.776Z,99.90
2018-08-27T19:43:34.881Z,99.90
2018-08-27T19:46:04.341Z,99.90
2018-08-27T19:48:33.364Z,99.90
2018-08-27T19:51:02.342Z,99.90
2018-08-27T19:53:31.046Z,99.90
2018-08-27T19:56:00.057Z,99.90
2018-08-27T19:58:28.942Z,99.90
2018-08-27T20:00:58.148Z,99.90
2018-08-27T20:03:28.030Z,99.90
2018-08-27T20:05:56.872Z,99.90
2018-08-27T20:08:26.360Z,99.90
2018-08-27T20:10:55.211Z,99.90
2018-08-27T20:13:24.100Z,99.90
2018-08-27T20:15:53.007Z,99.90
2018-08-27T20:18:22.023Z,99.90
2018-08-27T20:20:50.896Z,99.90
2018-08-27T20:23:19.864Z,99.90
2018-08-27T20:25:48.801Z,99.90
2018-08-27T20:28:17.561Z,99.90
2018-08-27T20:30:46.371Z,99.90
2018-08-27T20:33:15.275Z,99.90
2018-08-27T20:35:44.290Z,99.90
2018-08-27T20:38:13.450Z,99.90
2018-08-27T20:40:42.337Z,99.90
2018-08-27T20:43:11.141Z,99.90
2018-08-27T20:45:40.110Z,99.90
2018-08-27T20:48:09.013Z,99.90
2018-08-27T20:50:37.995Z,99.90
2018-08-27T20:53:07.553Z,99.90
2018-08-27T20:55:36.454Z,99.90
2018-08-27T20:58:05.218Z,99.90
2018-08-27T21:00:34.284Z,99.90
2018-08-27T21:03:03.067Z,99.90
2018-08-27T21:05:31.859Z,99.90
2018-08-27T21:08:00.855Z,99.90
2018-08-27T21:10:29.714Z,99.90
2018-08-27T21:12:58.502Z,99.90
2018-08-27T21:15:27.395Z,99.90
2018-08-27T21:17:56.310Z,99.90
2018-08-27T21:20:25.234Z,99.90
2018-08-27T21:22:54.705Z,99.90
2018-08-27T21:25:23.606Z,99.90
2018-08-27T21:27:52.487Z,99.90
2018-08-27T21:30:22.227Z,99.90
2018-08-27T21:32:50.967Z,99.90
2018-08-27T21:35:19.844Z,99.90
2018-08-27T21:37:48.685Z,99.90
2018-08-27T21:40:17.534Z,99.90
2018-08-27T21:42:46.446Z,99.90
2018-08-27T21:45:15.249Z,99.90
2018-08-27T21:47:44.074Z,99.90
2018-08-27T21:50:13.048Z,99.90
2018-08-27T21:52:41.966Z,99.90
2018-08-27T21:55:10.834Z,99.90
2018-08-27T21:57:40.690Z,99.90
2018-08-27T22:00:09.668Z,99.90
2018-08-27T22:02:44.464Z,99.90
2018-08-27T22:05:15.759Z,99.90
2018-08-27T22:07:45.318Z,99.90
2018-08-27T22:10:14.588Z,99.90
2018-08-27T22:12:43.426Z,99.90
2018-08-27T22:15:12.969Z,99.90
2018-08-27T22:17:42.508Z,99.90
2018-08-27T22:20:11.337Z,99.90
2018-08-27T22:22:40.135Z,99.90
2018-08-27T22:25:09.563Z,99.90
2018-08-27T22:27:38.420Z,99.90
2018-08-27T22:30:07.234Z,99.90
2018-08-27T22:32:36.158Z,99.90
2018-08-27T22:35:05.401Z,99.90
2018-08-27T22:37:34.715Z,99.90
2018-08-27T22:40:03.668Z,99.90
2018-08-27T22:42:33.074Z,99.90
2018-08-27T22:45:01.980Z,99.90
2018-08-27T22:47:30.887Z,99.90
2018-08-27T22:49:59.685Z,99.90
2018-08-27T22:52:28.519Z,99.90
2018-08-27T22:54:57.403Z,99.90
2018-08-27T22:57:26.290Z,99.90
2018-08-27T22:59:55.058Z,99.90
2018-08-27T23:02:29.081Z,99.90
2018-08-27T23:04:59.483Z,99.90
2018-08-27T23:07:29.485Z,99.90
2018-08-27T23:09:58.407Z,99.90
2018-08-27T23:12:27.842Z,99.90
2018-08-27T23:14:56.675Z,99.90
2018-08-27T23:17:25.378Z,99.90
2018-08-27T23:19:54.314Z,99.90
2018-08-27T23:22:23.185Z,99.90
2018-08-27T23:24:52.000Z,99.90
2018-08-27T23:27:20.922Z,99.90
2018-08-27T23:29:49.822Z,99.90
2018-08-27T23:32:18.870Z,99.90
2018-08-27T23:34:47.667Z,99.90
2018-08-27T23:37:16.622Z,99.90
2018-08-27T23:39:45.630Z,99.90
2018-08-27T23:42:14.497Z,99.90
2018-08-27T23:44:43.486Z,99.90
2018-08-27T23:47:12.417Z,99.90
2018-08-27T23:52:36.096Z,99.90
2018-08-27T23:55:04.924Z,99.90
2018-08-27T23:57:33.736Z,99.90
